createdAt,value
2018-07-17T00:00:13.582Z,992.02
2018-07-17T00:01:23.649Z,992.01
2018-07-17T00:02:34.526Z,991.98
2018-07-17T00:03:46.748Z,992
2018-07-17T00:04:56.840Z,991.97
2018-07-17T00:06:06.665Z,991.98
2018-07-17T00:07:16.741Z,991.98
2018-07-17T00:08:26.872Z,991.98
2018-07-17T00:09:36.951Z,991.97
2018-07-17T00:10:47.220Z,992
2018-07-17T00:11:57.288Z,991.96
2018-07-17T00:13:07.353Z,991.94
2018-07-17T00:14:17.447Z,992
2018-07-17T00:15:27.540Z,991.97
2018-07-17T00:16:37.602Z,991.96
2018-07-17T00:17:47.678Z,991.95
2018-07-17T00:18:57.767Z,991.91
2018-07-17T00:20:07.860Z,991.95
2018-07-17T00:21:17.939Z,991.93
2018-07-17T00:22:28.018Z,991.93
2018-07-17T00:23:38.078Z,991.93
2018-07-17T00:24:47.918Z,991.95
2018-07-17T00:25:58.984Z,991.93
2018-07-17T00:27:08.807Z,991.96
2018-07-17T00:28:18.875Z,991.97
2018-07-17T00:29:29.001Z,991.93
2018-07-17T00:30:39.083Z,991.91
2018-07-17T00:31:49.160Z,991.94
2018-07-17T00:32:59.240Z,991.91
2018-07-17T00:34:09.306Z,991.89
2018-07-17T00:35:19.122Z,991.87
2018-07-17T00:36:29.201Z,991.85
2018-07-17T00:37:39.022Z,991.85
2018-07-17T00:38:49.104Z,991.89
2018-07-17T00:39:59.183Z,991.82
2018-07-17T00:41:09.259Z,991.87
2018-07-17T00:42:19.328Z,991.85
2018-07-17T00:43:29.177Z,991.83
2018-07-17T00:44:39.305Z,991.82
2018-07-17T00:45:49.361Z,991.81
2018-07-17T00:46:59.184Z,991.81
2018-07-17T00:48:09.238Z,991.84
2018-07-17T00:49:19.316Z,991.86
2018-07-17T00:50:29.388Z,991.85
2018-07-17T00:51:39.195Z,991.83
2018-07-17T00:52:49.266Z,991.84
2018-07-17T00:53:59.351Z,991.83
2018-07-17T00:55:09.471Z,991.84
2018-07-17T00:56:19.532Z,991.85
2018-07-17T00:57:29.590Z,991.86
2018-07-17T00:58:39.658Z,991.85
2018-07-17T00:59:49.728Z,991.94
2018-07-17T01:00:59.854Z,991.91
2018-07-17T01:02:10.500Z,991.86
2018-07-17T01:03:20.577Z,991.84
2018-07-17T01:04:30.645Z,991.83
2018-07-17T01:05:40.197Z,991.81
2018-07-17T01:06:50.282Z,991.84
2018-07-17T01:08:00.693Z,991.93
2018-07-17T01:09:10.267Z,991.93
2018-07-17T01:10:20.336Z,991.95
2018-07-17T01:11:30.139Z,992
2018-07-17T01:12:40.230Z,992
2018-07-17T01:13:50.291Z,992.06
2018-07-17T01:15:00.352Z,992.04
2018-07-17T01:16:10.175Z,992.03
2018-07-17T01:17:20.236Z,992.04
2018-07-17T01:18:30.303Z,992.04
2018-07-17T01:19:40.372Z,992
2018-07-17T01:20:50.438Z,992.04
2018-07-17T01:22:00.519Z,992.07
2018-07-17T01:23:10.609Z,992.12
2018-07-17T01:24:20.208Z,992.13
2018-07-17T01:25:30.274Z,992.13
2018-07-17T01:26:40.339Z,992.06
2018-07-17T01:27:50.146Z,992.04
2018-07-17T01:29:00.240Z,992.07
2018-07-17T01:30:10.330Z,992.02
2018-07-17T01:31:20.434Z,992
2018-07-17T01:32:30.255Z,992
2018-07-17T01:33:40.319Z,991.98
2018-07-17T01:34:50.122Z,992.04
2018-07-17T01:36:00.190Z,992.02
2018-07-17T01:37:10.284Z,991.99
2018-07-17T01:38:20.415Z,992.02
2018-07-17T01:39:30.824Z,992.01
2018-07-17T01:40:40.625Z,992
2018-07-17T01:41:50.507Z,991.96
2018-07-17T01:43:00.616Z,992.04
2018-07-17T01:44:10.618Z,992.04
2018-07-17T01:45:20.427Z,992.11
2018-07-17T01:46:30.515Z,992.12
2018-07-17T01:47:40.342Z,992.11
2018-07-17T01:48:50.154Z,992.14
2018-07-17T01:50:00.210Z,992.18
2018-07-17T01:51:10.022Z,992.23
2018-07-17T01:52:20.097Z,992.29
2018-07-17T01:53:30.205Z,992.27
2018-07-17T01:54:40.263Z,992.35
2018-07-17T01:55:50.336Z,992.29
2018-07-17T01:57:00.149Z,992.31
2018-07-17T01:58:10.213Z,992.31
2018-07-17T01:59:20.394Z,992.27
2018-07-17T02:00:30.452Z,992.3
2018-07-17T02:01:40.266Z,992.24
2018-07-17T02:02:50.331Z,992.26
2018-07-17T02:04:00.394Z,992.26
2018-07-17T02:05:10.453Z,992.23
2018-07-17T02:06:20.534Z,992.21
2018-07-17T02:07:30.671Z,992.22
2018-07-17T02:08:40.754Z,992.21
2018-07-17T02:09:50.828Z,992.2
2018-07-17T02:11:00.898Z,992.19
2018-07-17T02:12:10.969Z,992.2
2018-07-17T02:13:20.773Z,992.22
2018-07-17T02:14:30.844Z,992.24
2018-07-17T02:15:40.913Z,992.24
2018-07-17T02:16:50.976Z,992.28
2018-07-17T02:18:01.050Z,992.26
2018-07-17T02:19:11.137Z,992.29
2018-07-17T02:20:21.230Z,992.28
2018-07-17T02:21:31.055Z,992.27
2018-07-17T02:22:41.134Z,992.27
2018-07-17T02:23:50.954Z,992.27
2018-07-17T02:25:00.765Z,992.29
2018-07-17T02:26:10.841Z,992.24
2018-07-17T02:27:20.665Z,992.28
2018-07-17T02:28:30.477Z,992.29
2018-07-17T02:29:40.534Z,992.29
2018-07-17T02:30:50.605Z,992.29
2018-07-17T02:32:00.442Z,992.3
2018-07-17T02:33:10.543Z,992.34
2018-07-17T02:34:20.629Z,992.36
2018-07-17T02:35:30.440Z,992.31
2018-07-17T02:36:40.518Z,992.34
2018-07-17T02:37:50.583Z,992.37
2018-07-17T02:39:00.651Z,992.32
2018-07-17T02:40:10.748Z,992.32
2018-07-17T02:41:20.824Z,992.3
2018-07-17T02:42:30.972Z,992.24
2018-07-17T02:43:40.793Z,992.32
2018-07-17T02:44:50.607Z,992.26
2018-07-17T02:46:00.672Z,992.23
2018-07-17T02:47:10.503Z,992.28
2018-07-17T02:48:20.581Z,992.32
2018-07-17T02:49:30.667Z,992.29
2018-07-17T02:50:40.470Z,992.33
2018-07-17T02:51:50.565Z,992.33
2018-07-17T02:53:00.632Z,992.32
2018-07-17T02:54:10.738Z,992.34
2018-07-17T02:55:20.801Z,992.32
2018-07-17T02:56:30.944Z,992.4
2018-07-17T02:57:41.008Z,992.37
2018-07-17T02:58:51.088Z,992.37
2018-07-17T03:00:01.179Z,992.41
2018-07-17T03:01:10.985Z,992.42
2018-07-17T03:02:21.053Z,992.37
2018-07-17T03:35:02.435Z,992.42
2018-07-17T03:36:12.221Z,992.36
2018-07-17T03:37:22.159Z,992.35
2018-07-17T03:38:31.952Z,992.35
2018-07-17T03:39:42.023Z,992.33
2018-07-17T03:40:52.131Z,992.33
2018-07-17T03:42:02.187Z,992.3
2018-07-17T03:43:12.258Z,992.32
2018-07-17T03:44:22.319Z,992.34
2018-07-17T03:45:31.866Z,992.31
2018-07-17T03:46:41.921Z,992.33
2018-07-17T03:47:52.034Z,992.28
2018-07-17T03:49:02.123Z,992.33
2018-07-17T03:50:11.950Z,992.31
2018-07-17T03:51:22.045Z,992.36
2018-07-17T03:52:32.103Z,992.28
2018-07-17T03:53:42.174Z,992.28
2018-07-17T03:54:51.981Z,992.25
2018-07-17T03:56:02.067Z,992.29
2018-07-17T03:57:12.144Z,992.28
2018-07-17T03:58:22.214Z,992.3
2018-07-17T03:59:32.267Z,992.31
2018-07-17T04:00:42.333Z,992.29
2018-07-17T04:01:52.402Z,992.29
2018-07-17T04:03:02.468Z,992.33
2018-07-17T04:04:12.735Z,992.28
2018-07-17T04:05:23.315Z,992.31
2018-07-17T04:06:33.397Z,992.3
2018-07-17T04:07:43.455Z,992.31
2018-07-17T04:08:53.029Z,992.31
2018-07-17T04:10:03.102Z,992.29
2018-07-17T04:11:12.914Z,992.27
2018-07-17T04:12:22.994Z,992.27
2018-07-17T04:13:32.928Z,992.34
2018-07-17T04:14:42.604Z,992.32
2018-07-17T04:15:52.684Z,992.33
2018-07-17T04:17:02.769Z,992.32
2018-07-17T04:18:12.850Z,992.39
2018-07-17T04:19:22.948Z,992.34
2018-07-17T04:20:33.079Z,992.35
2018-07-17T04:21:43.199Z,992.31
2018-07-17T04:22:52.761Z,992.32
2018-07-17T04:24:02.557Z,992.28
2018-07-17T04:25:12.614Z,992.3
2018-07-17T04:26:22.427Z,992.32
2018-07-17T04:27:31.975Z,992.36
2018-07-17T04:28:41.779Z,992.32
2018-07-17T04:29:51.619Z,992.36
2018-07-17T04:31:01.958Z,992.33
2018-07-17T04:32:12.036Z,992.33
2018-07-17T04:33:22.109Z,992.34
2018-07-17T04:34:32.189Z,992.37
2018-07-17T04:35:42.002Z,992.38
2018-07-17T04:36:52.073Z,992.37
2018-07-17T04:38:02.134Z,992.36
2018-07-17T04:39:12.210Z,992.37
2018-07-17T04:40:22.026Z,992.36
2018-07-17T04:41:32.098Z,992.38
2018-07-17T04:42:42.158Z,992.35
2018-07-17T04:43:51.977Z,992.42
2018-07-17T04:45:02.160Z,992.64
2018-07-17T04:46:12.232Z,992.56
2018-07-17T04:47:22.406Z,992.55
2018-07-17T04:48:32.216Z,992.57
2018-07-17T04:49:42.038Z,992.68
2018-07-17T04:50:52.104Z,992.53
2018-07-17T04:52:01.924Z,992.51
2018-07-17T04:53:11.990Z,992.69
2018-07-17T04:54:21.824Z,992.72
2018-07-17T04:55:31.632Z,992.59
2018-07-17T04:56:41.937Z,992.74
2018-07-17T04:57:52.009Z,992.76
2018-07-17T04:59:01.812Z,992.85
2018-07-17T05:00:11.678Z,992.73
2018-07-17T05:01:21.765Z,992.69
2018-07-17T05:02:32.165Z,992.71
2018-07-17T05:03:42.256Z,992.74
2018-07-17T05:04:52.329Z,992.66
2018-07-17T05:06:02.400Z,992.68
2018-07-17T05:07:12.475Z,992.74
2018-07-17T05:08:22.543Z,992.7
2018-07-17T05:09:32.619Z,992.7
2018-07-17T05:10:42.692Z,992.69
2018-07-17T05:11:52.563Z,992.64
2018-07-17T05:13:02.512Z,992.63
2018-07-17T05:14:12.362Z,992.71
2018-07-17T05:15:21.913Z,992.7
2018-07-17T05:16:31.832Z,992.71
2018-07-17T05:17:41.972Z,992.72
2018-07-17T05:18:51.513Z,992.73
2018-07-17T05:20:01.332Z,992.66
2018-07-17T05:21:11.283Z,992.68
2018-07-17T05:22:21.442Z,992.69
2018-07-17T05:23:31.534Z,992.64
2018-07-17T05:24:41.637Z,992.64
2018-07-17T05:25:51.743Z,992.64
2018-07-17T05:27:01.550Z,992.58
2018-07-17T05:28:11.621Z,992.61
2018-07-17T05:29:21.697Z,992.63
2018-07-17T05:30:31.764Z,992.68
2018-07-17T05:31:41.825Z,992.67
2018-07-17T05:32:51.904Z,992.63
2018-07-17T05:34:01.990Z,992.66
2018-07-17T05:35:12.196Z,992.62
2018-07-17T05:36:22.469Z,992.62
2018-07-17T05:37:32.540Z,992.58
2018-07-17T05:38:42.602Z,992.57
2018-07-17T05:39:52.415Z,992.55
2018-07-17T05:41:02.477Z,992.58
2018-07-17T05:42:12.549Z,992.56
2018-07-17T05:43:22.694Z,992.63
2018-07-17T05:44:32.780Z,992.63
2018-07-17T05:45:42.866Z,992.63
2018-07-17T05:46:52.952Z,992.69
2018-07-17T05:48:03.040Z,992.66
2018-07-17T05:49:12.907Z,992.66
2018-07-17T05:50:22.713Z,992.68
2018-07-17T05:51:32.522Z,992.71
2018-07-17T05:52:42.594Z,992.68
2018-07-17T05:53:52.662Z,992.68
2018-07-17T05:55:02.467Z,992.81
2018-07-17T05:56:12.594Z,992.76
2018-07-17T05:57:22.655Z,992.9
2018-07-17T05:58:32.745Z,993.13
2018-07-17T05:59:42.899Z,993.13
2018-07-17T06:00:52.696Z,992.78
2018-07-17T06:02:02.775Z,992.77
2018-07-17T06:03:12.875Z,992.71
2018-07-17T06:04:22.979Z,992.7
2018-07-17T06:05:32.852Z,992.91
2018-07-17T06:06:42.917Z,992.9
2018-07-17T06:07:52.839Z,992.92
2018-07-17T06:09:02.922Z,992.87
2018-07-17T06:10:12.776Z,992.75
2018-07-17T06:11:23.190Z,992.76
2018-07-17T06:12:33.266Z,992.77
2018-07-17T06:13:43.139Z,992.71
2018-07-17T06:14:53.222Z,992.78
2018-07-17T06:16:03.289Z,992.74
2018-07-17T06:17:13.358Z,992.81
2018-07-17T06:18:23.167Z,992.83
2018-07-17T06:19:33.234Z,993.03
2018-07-17T06:20:43.319Z,992.98
2018-07-17T06:21:53.398Z,992.92
2018-07-17T06:23:03.718Z,992.76
2018-07-17T06:24:13.802Z,992.73
2018-07-17T06:25:23.889Z,992.76
2018-07-17T06:26:33.985Z,992.76
2018-07-17T06:27:44.061Z,992.7
2018-07-17T06:28:54.128Z,992.7
2018-07-17T06:30:04.225Z,992.68
2018-07-17T06:31:14.302Z,992.65
2018-07-17T06:32:24.391Z,992.64
2018-07-17T06:33:34.464Z,992.66
2018-07-17T06:34:44.560Z,992.63
2018-07-17T06:35:54.671Z,992.64
2018-07-17T06:37:04.750Z,992.63
2018-07-17T06:38:14.580Z,992.68
2018-07-17T06:39:24.385Z,992.63
2018-07-17T06:40:33.927Z,992.78
2018-07-17T06:41:44.012Z,992.72
2018-07-17T06:42:54.092Z,992.71
2018-07-17T06:44:04.190Z,992.66
2018-07-17T06:45:14.283Z,992.65
2018-07-17T06:46:24.197Z,992.66
2018-07-17T06:47:34.261Z,992.64
2018-07-17T06:48:44.083Z,992.72
2018-07-17T06:49:54.157Z,992.71
2018-07-17T06:51:03.971Z,992.75
2018-07-17T06:52:14.049Z,992.69
2018-07-17T06:53:24.154Z,992.65
2018-07-17T06:54:33.975Z,992.62
2018-07-17T06:55:44.047Z,992.65
2018-07-17T06:56:53.863Z,992.64
2018-07-17T06:58:03.932Z,992.58
2018-07-17T06:59:13.748Z,992.6
2018-07-17T07:00:23.820Z,992.58
2018-07-17T07:01:33.903Z,992.55
2018-07-17T07:02:43.993Z,992.61
2018-07-17T07:03:54.061Z,992.61
2018-07-17T07:05:04.132Z,992.64
2018-07-17T07:06:13.794Z,992.7
2018-07-17T07:07:23.880Z,992.69
2018-07-17T07:08:33.526Z,992.63
2018-07-17T07:09:43.354Z,992.67
2018-07-17T07:10:53.450Z,992.69
2018-07-17T07:12:03.575Z,992.73
2018-07-17T07:13:13.664Z,992.65
2018-07-17T07:14:23.797Z,992.65
2018-07-17T07:15:33.858Z,992.65
2018-07-17T07:16:43.914Z,992.73
2018-07-17T07:17:54.046Z,992.67
2018-07-17T07:19:04.144Z,992.66
2018-07-17T07:20:14.219Z,992.72
2018-07-17T07:21:24.307Z,992.65
2018-07-17T07:22:34.386Z,992.66
2018-07-17T07:23:44.673Z,992.76
2018-07-17T07:24:54.743Z,992.67
2018-07-17T07:26:04.817Z,992.68
2018-07-17T07:27:14.894Z,992.67
2018-07-17T07:28:24.710Z,992.62
2018-07-17T07:29:34.789Z,992.68
2018-07-17T07:30:44.869Z,992.71
2018-07-17T07:31:55.170Z,992.71
2018-07-17T07:33:05.253Z,992.73
2018-07-17T07:34:15.076Z,992.68
2018-07-17T07:35:24.894Z,992.71
2018-07-17T07:36:35.003Z,992.65
2018-07-17T07:37:45.085Z,992.71
2018-07-17T07:38:55.202Z,992.68
2018-07-17T07:40:05.301Z,992.73
2018-07-17T07:41:15.395Z,992.69
2018-07-17T07:42:25.483Z,992.7
2018-07-17T07:43:35.564Z,992.72
2018-07-17T07:44:45.645Z,992.67
2018-07-17T07:45:55.727Z,992.76
2018-07-17T07:47:05.546Z,992.7
2018-07-17T07:48:15.645Z,992.69
2018-07-17T07:49:25.776Z,992.69
2018-07-17T07:50:35.628Z,992.74
2018-07-17T07:51:45.709Z,992.64
2018-07-17T07:52:55.539Z,992.72
2018-07-17T07:54:05.614Z,992.74
2018-07-17T07:55:15.440Z,992.7
2018-07-17T07:56:25.533Z,992.73
2018-07-17T07:57:35.611Z,992.66
2018-07-17T07:58:45.693Z,992.8
2018-07-17T07:59:55.777Z,992.79
2018-07-17T08:01:05.862Z,992.74
2018-07-17T08:02:15.932Z,992.82
2018-07-17T08:03:26.005Z,992.73
2018-07-17T08:04:36.204Z,992.77
2018-07-17T08:05:46.102Z,992.76
2018-07-17T08:06:56.187Z,992.77
2018-07-17T08:08:06.282Z,992.79
2018-07-17T08:09:16.362Z,992.8
2018-07-17T08:10:26.430Z,992.89
2018-07-17T08:11:36.570Z,992.82
2018-07-17T08:12:46.248Z,992.83
2018-07-17T08:13:56.346Z,992.82
2018-07-17T08:15:06.433Z,992.79
2018-07-17T08:16:16.514Z,992.78
2018-07-17T08:17:26.354Z,992.77
2018-07-17T08:18:36.449Z,992.81
2018-07-17T08:19:46.545Z,992.76
2018-07-17T08:20:56.373Z,992.79
2018-07-17T08:22:06.451Z,992.79
2018-07-17T08:23:16.521Z,992.81
2018-07-17T08:24:26.506Z,992.88
2018-07-17T08:25:36.720Z,992.79
2018-07-17T08:26:46.546Z,992.87
2018-07-17T08:27:56.628Z,992.83
2018-07-17T08:29:06.443Z,992.86
2018-07-17T08:30:16.530Z,992.86
2018-07-17T08:31:26.601Z,992.85
2018-07-17T08:32:36.688Z,992.85
2018-07-17T08:33:46.501Z,992.92
2018-07-17T08:34:56.642Z,992.87
2018-07-17T08:36:06.459Z,992.91
2018-07-17T08:37:16.537Z,992.89
2018-07-17T08:38:26.416Z,992.92
2018-07-17T08:39:36.511Z,992.94
2018-07-17T08:40:46.574Z,992.97
2018-07-17T08:41:56.675Z,992.96
2018-07-17T08:43:06.773Z,992.86
2018-07-17T08:44:17.069Z,992.91
2018-07-17T08:45:26.873Z,992.92
2018-07-17T08:46:36.994Z,992.91
2018-07-17T08:47:47.068Z,992.94
2018-07-17T08:48:56.889Z,992.92
2018-07-17T08:50:07.092Z,992.96
2018-07-17T08:51:16.908Z,992.93
2018-07-17T08:52:27.031Z,992.94
2018-07-17T08:53:36.843Z,992.94
2018-07-17T08:54:46.675Z,992.99
2018-07-17T08:55:56.239Z,992.95
2018-07-17T08:57:06.319Z,992.93
2018-07-17T08:58:16.406Z,992.97
2018-07-17T08:59:26.495Z,992.98
2018-07-17T09:00:36.603Z,992.92
2018-07-17T09:01:46.700Z,992.97
2018-07-17T09:02:56.799Z,992.99
2018-07-17T09:04:06.872Z,993
2018-07-17T09:05:16.951Z,992.96
2018-07-17T09:06:26.788Z,992.98
2018-07-17T09:07:36.874Z,992.98
2018-07-17T09:08:46.685Z,992.99
2018-07-17T09:09:56.850Z,993.01
2018-07-17T09:11:06.950Z,993.03
2018-07-17T09:12:17.032Z,993.04
2018-07-17T09:13:27.104Z,993.01
2018-07-17T09:14:37.179Z,993.02
2018-07-17T09:15:47.258Z,992.99
2018-07-17T09:16:57.351Z,992.99
2018-07-17T09:18:07.429Z,992.96
2018-07-17T09:19:17.532Z,993
2018-07-17T09:20:27.618Z,992.95
2018-07-17T09:21:37.515Z,992.94
2018-07-17T09:22:47.813Z,992.91
2018-07-17T09:23:57.626Z,992.97
2018-07-17T09:25:07.437Z,993.02
2018-07-17T09:26:17.258Z,993.02
2018-07-17T09:27:27.102Z,993.02
2018-07-17T09:28:37.180Z,992.98
2018-07-17T09:29:47.271Z,993.01
2018-07-17T09:30:57.399Z,993.05
2018-07-17T09:32:07.480Z,993.01
2018-07-17T09:33:17.572Z,993.03
2018-07-17T09:34:27.453Z,993.05
2018-07-17T09:35:37.531Z,993.05
2018-07-17T09:36:47.616Z,993.01
2018-07-17T09:37:57.235Z,993.03
2018-07-17T09:39:07.363Z,992.99
2018-07-17T09:40:17.686Z,993.04
2018-07-17T09:41:27.769Z,993
2018-07-17T09:42:37.333Z,993
2018-07-17T09:43:47.432Z,992.97
2018-07-17T09:44:57.255Z,992.94
2018-07-17T09:46:07.353Z,992.93
2018-07-17T09:47:17.179Z,992.87
2018-07-17T09:48:27.275Z,992.94
2018-07-17T09:49:37.342Z,992.85
2018-07-17T09:50:47.467Z,992.84
2018-07-17T09:51:57.539Z,992.8
2018-07-17T09:53:07.620Z,992.8
2018-07-17T09:54:17.483Z,992.72
2018-07-17T09:55:28.128Z,992.7
2018-07-17T09:56:38.259Z,992.69
2018-07-17T09:57:48.579Z,992.69
2018-07-17T09:58:58.673Z,992.7
2018-07-17T10:00:08.749Z,992.7
2018-07-17T10:01:18.554Z,992.67
2018-07-17T10:02:28.448Z,992.57
2018-07-17T10:03:38.275Z,992.6
2018-07-17T10:04:48.381Z,992.61
2018-07-17T10:05:58.465Z,992.58
2018-07-17T10:07:08.565Z,992.58
2018-07-17T10:08:18.707Z,992.59
2018-07-17T10:09:28.575Z,992.52
2018-07-17T10:10:39.166Z,992.63
2018-07-17T10:11:49.307Z,992.56
2018-07-17T10:12:59.922Z,992.57
2018-07-17T10:14:10.027Z,992.57
2018-07-17T10:15:20.113Z,992.57
2018-07-17T10:16:30.207Z,992.5
2018-07-17T10:17:40.019Z,992.54
2018-07-17T10:18:49.848Z,992.5
2018-07-17T10:20:00.008Z,992.46
2018-07-17T10:21:10.719Z,992.44
2018-07-17T10:22:20.534Z,992.47
2018-07-17T10:23:30.106Z,992.52
2018-07-17T10:24:39.947Z,992.5
2018-07-17T10:25:50.099Z,992.58
2018-07-17T10:27:00.210Z,992.52
2018-07-17T10:28:10.025Z,992.44
2018-07-17T10:29:20.114Z,992.51
2018-07-17T10:30:30.213Z,992.47
2018-07-17T10:31:40.322Z,992.43
2018-07-17T10:32:50.414Z,992.42
2018-07-17T10:34:00.236Z,992.46
2018-07-17T10:35:10.049Z,992.46
2018-07-17T10:36:19.888Z,992.28
2018-07-17T10:37:30.023Z,992.36
2018-07-17T10:38:40.128Z,992.3
2018-07-17T10:39:50.561Z,992.34
2018-07-17T10:41:00.641Z,992.3
2018-07-17T10:42:10.757Z,992.22
2018-07-17T10:43:20.839Z,992.29
2018-07-17T10:44:30.927Z,992.26
2018-07-17T10:45:41.003Z,992.16
2018-07-17T10:46:50.818Z,992.18
2018-07-17T10:48:00.891Z,992.25
2018-07-17T10:49:10.767Z,992.26
2018-07-17T10:50:20.920Z,992.28
2018-07-17T10:51:31.023Z,992.21
2018-07-17T10:52:41.110Z,992.25
2018-07-17T10:53:51.243Z,992.21
2018-07-17T10:55:01.432Z,992.2
2018-07-17T10:56:11.522Z,992.19
2018-07-17T10:57:21.601Z,992.19
2018-07-17T10:58:31.676Z,992.12
2018-07-17T10:59:41.771Z,992.11
2018-07-17T11:00:51.881Z,992.07
2018-07-17T11:02:02.009Z,992.03
2018-07-17T11:03:12.114Z,992.08
2018-07-17T11:04:22.179Z,992.04
2018-07-17T11:05:32.259Z,992.11
2018-07-17T11:06:41.820Z,992.07
2018-07-17T11:07:51.913Z,992.1
2018-07-17T11:09:01.719Z,992.11
2018-07-17T11:10:11.819Z,992.1
2018-07-17T11:11:21.894Z,992.15
2018-07-17T11:12:31.457Z,992.12
2018-07-17T11:13:41.568Z,992.19
2018-07-17T11:14:51.670Z,992.12
2018-07-17T11:16:01.765Z,992.06
2018-07-17T11:17:11.584Z,992.18
2018-07-17T11:18:21.451Z,992.07
2018-07-17T11:19:30.998Z,992.11
2018-07-17T11:20:41.089Z,992.12
2018-07-17T11:21:51.203Z,992.12
2018-07-17T11:23:01.289Z,992.17
2018-07-17T11:24:11.112Z,992.12
2018-07-17T11:25:20.682Z,992.07
2018-07-17T11:26:30.515Z,992.1
2018-07-17T11:27:40.593Z,992.08
2018-07-17T11:28:50.664Z,992.05
2018-07-17T11:30:00.469Z,992.01
2018-07-17T11:31:10.550Z,992.1
2018-07-17T11:32:20.645Z,992.19
2018-07-17T11:33:30.474Z,992.08
2018-07-17T11:34:40.318Z,991.9
2018-07-17T11:35:50.444Z,991.91
2018-07-17T11:37:00.275Z,991.99
2018-07-17T11:38:10.353Z,991.86
2018-07-17T11:39:20.425Z,991.93
2018-07-17T11:40:30.258Z,991.89
2018-07-17T11:41:40.090Z,991.98
2018-07-17T11:42:50.184Z,991.84
2018-07-17T11:44:00.278Z,991.88
2018-07-17T11:45:10.088Z,991.87
2018-07-17T11:46:19.937Z,991.79
2018-07-17T11:47:29.756Z,991.81
2018-07-17T11:48:39.919Z,991.74
2018-07-17T11:49:50.015Z,991.8
2018-07-17T11:51:00.111Z,991.66
2018-07-17T11:52:10.238Z,991.77
2018-07-17T11:53:20.086Z,991.7
2018-07-17T11:54:30.429Z,991.7
2018-07-17T11:55:40.538Z,991.68
2018-07-17T11:56:50.098Z,991.65
2018-07-17T11:58:00.266Z,991.58
2018-07-17T11:59:10.410Z,991.62
2018-07-17T12:00:21.338Z,991.49
2018-07-17T12:01:31.415Z,991.61
2018-07-17T12:02:41.220Z,991.57
2018-07-17T12:03:51.100Z,991.59
2018-07-17T12:05:01.204Z,991.54
2018-07-17T12:06:11.291Z,991.56
2018-07-17T12:07:21.116Z,991.64
2018-07-17T12:08:31.256Z,991.61
2018-07-17T12:09:41.390Z,991.58
2018-07-17T12:10:51.222Z,991.55
2018-07-17T12:12:01.312Z,991.54
2018-07-17T12:13:11.398Z,991.47
2018-07-17T12:14:21.499Z,991.48
2018-07-17T12:15:31.618Z,991.38
2018-07-17T12:16:41.693Z,991.46
2018-07-17T12:17:51.769Z,991.25
2018-07-17T12:19:01.845Z,991.3
2018-07-17T12:20:11.983Z,991.22
2018-07-17T12:21:23.017Z,991.35
2018-07-17T12:22:33.104Z,991.22
2018-07-17T12:23:43.179Z,991.4
2018-07-17T12:24:53.253Z,991.34
2018-07-17T12:26:03.430Z,991.27
2018-07-17T12:27:13.557Z,991.31
2018-07-17T12:28:23.646Z,991.27
2018-07-17T12:29:33.758Z,991.28
2018-07-17T12:30:43.847Z,991.19
2018-07-17T12:31:54.014Z,991.27
2018-07-17T12:33:04.107Z,991.2
2018-07-17T12:34:14.175Z,991.33
2018-07-17T12:35:23.998Z,991.32
2018-07-17T12:36:33.868Z,991.41
2018-07-17T12:37:43.947Z,991.46
2018-07-17T12:38:54.036Z,991.46
2018-07-17T12:40:04.130Z,991.53
2018-07-17T12:41:14.207Z,991.62
2018-07-17T12:42:24.278Z,991.71
2018-07-17T12:43:34.363Z,991.8
2018-07-17T12:44:44.446Z,991.86
2018-07-17T12:45:54.308Z,991.91
2018-07-17T12:47:04.420Z,991.97
2018-07-17T12:48:14.504Z,991.97
2018-07-17T12:49:24.578Z,992.07
2018-07-17T12:50:34.399Z,992.03
2018-07-17T12:51:44.477Z,992.06
2018-07-17T12:52:54.549Z,991.96
2018-07-17T12:54:04.627Z,992.01
2018-07-17T12:55:14.716Z,991.98
2018-07-17T12:56:24.918Z,992.03
2018-07-17T12:57:35.205Z,992.04
2018-07-17T12:58:45.298Z,992.06
2018-07-17T12:59:55.368Z,992.02
2018-07-17T13:01:05.197Z,992.07
2018-07-17T13:02:15.290Z,992.1
2018-07-17T13:03:25.109Z,992.08
2018-07-17T13:04:34.914Z,992.06
2018-07-17T13:05:44.737Z,992.08
2018-07-17T13:06:54.869Z,992.08
2018-07-17T13:08:04.463Z,992.11
2018-07-17T13:09:14.621Z,992.1
2018-07-17T13:10:25.036Z,992.11
2018-07-17T13:11:35.140Z,992.14
2018-07-17T13:12:45.286Z,992.09
2018-07-17T13:13:54.851Z,992.11
2018-07-17T13:15:04.983Z,992.06
2018-07-17T13:16:15.052Z,992.06
2018-07-17T13:17:25.222Z,992.1
2018-07-17T13:18:35.880Z,992.02
2018-07-17T13:19:45.986Z,992.05
2018-07-17T13:20:56.070Z,992.07
2018-07-17T13:22:05.904Z,992.06
2018-07-17T13:23:15.713Z,992.04
2018-07-17T13:24:25.276Z,992.05
2018-07-17T13:25:35.378Z,992.12
2018-07-17T13:26:45.509Z,992.15
2018-07-17T13:27:55.595Z,992.05
2018-07-17T13:29:05.680Z,992.07
2018-07-17T13:30:15.750Z,992.1
2018-07-17T13:31:25.840Z,992.03
2018-07-17T13:32:35.702Z,992.15
2018-07-17T13:33:45.784Z,992.26
2018-07-17T13:34:55.878Z,992.25
2018-07-17T13:36:06.039Z,992.42
2018-07-17T13:37:16.139Z,992.44
2018-07-17T13:38:26.225Z,992.48
2018-07-17T13:39:36.032Z,992.44
2018-07-17T13:40:46.133Z,992.43
2018-07-17T13:41:55.967Z,992.38
2018-07-17T13:43:06.041Z,992.45
2018-07-17T13:44:16.119Z,992.47
2018-07-17T13:45:25.960Z,992.48
2018-07-17T13:46:35.773Z,992.53
2018-07-17T13:47:45.877Z,992.62
2018-07-17T13:48:55.713Z,992.74
2018-07-17T13:50:05.633Z,992.58
2018-07-17T13:51:15.886Z,992.58
2018-07-17T13:52:25.971Z,992.56
2018-07-17T13:53:36.061Z,992.54
2018-07-17T13:54:46.161Z,992.56
2018-07-17T13:55:56.306Z,992.63
2018-07-17T13:57:06.427Z,992.6
2018-07-17T13:58:16.237Z,992.61
2018-07-17T13:59:26.308Z,992.52
2018-07-17T14:00:36.134Z,992.57
2018-07-17T14:01:46.025Z,992.59
2018-07-17T14:02:56.122Z,992.63
2018-07-17T14:04:05.965Z,992.63
2018-07-17T14:05:16.060Z,992.62
2018-07-17T14:06:26.153Z,992.6
2018-07-17T14:07:36.301Z,992.61
2018-07-17T14:08:46.421Z,992.67
2018-07-17T14:09:56.265Z,992.66
2018-07-17T14:11:06.099Z,992.65
2018-07-17T14:12:15.958Z,992.73
2018-07-17T14:13:26.188Z,992.75
2018-07-17T14:14:36.271Z,992.83
2018-07-17T14:15:46.367Z,992.91
2018-07-17T14:16:56.188Z,992.84
2018-07-17T14:18:06.028Z,992.99
2018-07-17T14:19:16.135Z,992.99
2018-07-17T14:20:26.222Z,993.08
2018-07-17T14:21:36.384Z,993.05
2018-07-17T14:22:46.468Z,992.99
2018-07-17T14:23:56.038Z,992.97
2018-07-17T14:25:06.185Z,992.94
2018-07-17T14:26:16.278Z,992.91
2018-07-17T14:27:26.370Z,992.89
2018-07-17T14:28:36.447Z,992.82
2018-07-17T14:29:46.536Z,992.82
2018-07-17T14:30:56.649Z,992.83
2018-07-17T14:32:06.795Z,992.87
2018-07-17T14:33:16.860Z,992.79
2018-07-17T14:34:26.670Z,992.78
2018-07-17T14:35:36.779Z,992.72
2018-07-17T14:36:47.044Z,992.71
2018-07-17T14:37:57.143Z,992.66
2018-07-17T14:39:06.987Z,992.59
2018-07-17T14:40:17.063Z,992.56
2018-07-17T14:41:26.991Z,992.53
2018-07-17T14:42:37.605Z,992.55
2018-07-17T14:43:47.483Z,992.52
2018-07-17T14:44:57.582Z,992.57
2018-07-17T14:46:07.664Z,992.59
2018-07-17T14:47:17.484Z,992.61
2018-07-17T14:48:27.563Z,992.59
2018-07-17T14:49:37.668Z,992.52
2018-07-17T14:50:47.867Z,992.53
2018-07-17T14:51:57.963Z,992.55
2018-07-17T14:53:08.046Z,992.56
2018-07-17T14:54:18.115Z,992.53
2018-07-17T14:55:27.920Z,992.47
2018-07-17T14:56:37.738Z,992.42
2018-07-17T14:57:47.831Z,992.4
2018-07-17T14:58:57.643Z,992.4
2018-07-17T15:00:07.732Z,992.4
2018-07-17T15:01:18.367Z,992.36
2018-07-17T15:02:28.198Z,992.37
2018-07-17T15:03:38.297Z,992.33
2018-07-17T15:04:48.373Z,992.35
2018-07-17T15:05:58.473Z,992.36
2018-07-17T15:07:08.554Z,992.37
2018-07-17T15:08:18.370Z,992.34